Time;durP1;ratioP1;P1;durP2;ratioP2;P2;SDS_P1;SDS_P2;PMS_P1;PMS_P2;Temp;Humidity;BMP_temperature;BMP_pressure;BME280_temperature;BME280_humidity;BME280_pressure;Samples;Min_cycle;Max_cycle;Signal;HPM_P1;HPM_P2
2023/03/14 00:00:07;;;;;;;12.55;11.32;;;11.10;99.90;;;;;;5044871;28;20210;-74
2023/03/14 00:02:36;;;;;;;12.27;11.07;;;11.10;99.90;;;;;;5047993;28;20242;-74
2023/03/14 00:05:06;;;;;;;12.75;11.55;;;11.00;99.90;;;;;;5047478;28;20286;-76
2023/03/14 00:07:35;;;;;;;12.35;10.90;;;10.90;99.90;;;;;;5049029;28;20246;-75
2023/03/14 00:10:04;;;;;;;16.13;13.13;;;10.80;99.90;;;;;;5045598;28;20202;-75
2023/03/14 00:12:31;;;;;;;11.77;10.68;;;10.70;99.90;;;;;;5043809;28;20221;-74
2023/03/14 00:14:59;;;;;;;14.18;11.68;;;10.70;99.90;;;;;;5045927;28;20249;-75
2023/03/14 00:17:27;;;;;;;13.45;12.05;;;10.80;99.90;;;;;;5045733;28;20233;-75
2023/03/14 00:19:55;;;;;;;16.42;11.95;;;10.80;99.90;;;;;;5048209;28;20226;-75
2023/03/14 00:22:22;;;;;;;17.95;12.88;;;10.70;99.90;;;;;;5046256;28;20214;-75
2023/03/14 00:24:49;;;;;;;12.80;11.48;;;10.60;99.90;;;;;;5046981;28;20573;-75
2023/03/14 00:27:17;;;;;;;14.38;12.85;;;10.50;99.90;;;;;;5046192;28;20227;-75
2023/03/14 00:29:44;;;;;;;14.75;11.65;;;10.30;99.90;;;;;;5049390;28;20597;-73
2023/03/14 00:32:11;;;;;;;14.18;12.73;;;10.20;99.90;;;;;;5054074;28;20214;-76
2023/03/14 00:34:39;;;;;;;13.35;12.05;;;10.10;99.90;;;;;;5058067;28;20196;-75
2023/03/14 00:37:08;;;;;;;12.48;11.20;;;10.00;99.90;;;;;;5047635;28;20394;-74
2023/03/14 00:39:34;;;;;;;13.98;12.57;;;9.90;99.90;;;;;;5049900;28;20226;-75
2023/03/14 00:42:01;;;;;;;12.20;11.00;;;9.80;99.90;;;;;;5046755;28;20310;-74
2023/03/14 00:44:28;;;;;;;10.25;9.35;;;9.70;99.90;;;;;;5045686;28;20214;-75
2023/03/14 00:46:56;;;;;;;10.90;9.55;;;9.80;99.90;;;;;;5046430;28;20219;-74
2023/03/14 00:49:23;;;;;;;12.05;11.05;;;9.70;99.90;;;;;;5047550;28;20198;-75
2023/03/14 00:51:51;;;;;;;11.88;10.77;;;9.60;99.90;;;;;;5048425;28;20191;-74
2023/03/14 00:54:20;;;;;;;14.65;13.27;;;9.50;99.90;;;;;;5045067;28;20211;-74
2023/03/14 00:56:47;;;;;;;16.50;14.88;;;9.40;99.90;;;;;;5046220;28;20211;-74
2023/03/14 00:59:14;;;;;;;22.30;19.15;;;9.20;99.90;;;;;;5047290;28;20207;-74
2023/03/14 01:01:42;;;;;;;19.27;17.38;;;9.00;99.90;;;;;;5047369;28;20223;-75
2023/03/14 01:04:09;;;;;;;22.20;19.92;;;8.70;99.90;;;;;;5071943;28;20198;-75
2023/03/14 01:06:36;;;;;;;17.73;15.93;;;8.50;99.90;;;;;;5068322;28;20244;-75
2023/03/14 01:09:03;;;;;;;24.75;22.35;;;8.50;99.90;;;;;;5047419;28;20625;-76
2023/03/14 01:11:34;;;;;;;20.98;18.88;;;8.40;99.90;;;;;;5046053;28;20207;-75
2023/03/14 01:14:02;;;;;;;23.02;19.83;;;8.40;99.90;;;;;;5046298;28;20226;-74
2023/03/14 01:16:31;;;;;;;22.40;20.20;;;8.30;99.90;;;;;;5046717;28;20266;-74
2023/03/14 01:18:58;;;;;;;22.88;20.42;;;8.20;99.90;;;;;;5049982;28;20209;-74
2023/03/14 01:21:27;;;;;;;25.70;23.02;;;8.20;99.90;;;;;;5043056;28;20285;-75
2023/03/14 01:23:59;;;;;;;27.85;24.85;;;8.10;99.90;;;;;;5047787;28;20252;-75
2023/03/14 01:26:28;;;;;;;26.42;22.23;;;8.10;99.90;;;;;;5042681;28;20228;-76
2023/03/14 01:28:56;;;;;;;23.40;20.90;;;8.10;99.90;;;;;;5044213;28;20230;-75
2023/03/14 01:31:24;;;;;;;27.73;24.63;;;8.10;99.90;;;;;;5056299;28;20581;-75
2023/03/14 01:33:52;;;;;;;25.52;22.80;;;8.10;99.90;;;;;;5050704;28;20265;-74
2023/03/14 01:36:19;;;;;;;28.77;25.65;;;8.10;99.90;;;;;;5044012;28;20195;-74
2023/03/14 01:38:46;;;;;;;27.25;24.33;;;8.10;99.90;;;;;;5049511;28;20734;-75
2023/03/14 01:41:16;;;;;;;31.00;27.17;;;8.00;99.90;;;;;;5046850;28;20257;-75
2023/03/14 01:43:43;;;;;;;22.25;19.92;;;8.00;99.90;;;;;;5039438;28;20253;-75
2023/03/14 01:46:25;;;;;;;28.08;25.15;;;8.00;99.90;;;;;;5048556;28;20227;-74
2023/03/14 01:49:00;;;;;;;26.33;23.65;;;8.00;99.90;;;;;;5047395;28;20230;-74
2023/03/14 01:51:34;;;;;;;25.17;22.50;;;8.10;99.90;;;;;;5043303;28;20207;-74
2023/03/14 01:54:06;;;;;;;21.60;19.35;;;8.10;99.90;;;;;;5045564;28;20733;-74
2023/03/14 01:56:33;;;;;;;24.65;22.15;;;8.10;99.90;;;;;;5047686;28;20272;-74
2023/03/14 01:59:01;;;;;;;23.88;21.50;;;8.10;99.90;;;;;;5044270;28;20239;-74
2023/03/14 02:01:30;;;;;;;21.58;19.30;;;8.10;99.90;;;;;;5044642;28;20231;-74
2023/03/14 02:04:00;;;;;;;19.33;17.40;;;8.10;99.90;;;;;;5046499;28;20195;-74
2023/03/14 02:06:31;;;;;;;17.52;15.90;;;8.10;99.90;;;;;;5044337;28;20245;-74
2023/03/14 02:09:00;;;;;;;15.70;14.30;;;8.20;99.90;;;;;;5043752;28;20342;-74
2023/03/14 02:11:30;;;;;;;17.13;15.50;;;8.20;99.90;;;;;;5047324;28;20914;-74
2023/03/14 02:13:58;;;;;;;17.00;15.38;;;8.20;99.90;;;;;;5045992;28;20211;-74
2023/03/14 02:16:25;;;;;;;14.15;12.90;;;8.20;99.90;;;;;;5046968;28;20250;-75
2023/03/14 02:18:54;;;;;;;13.85;12.52;;;8.20;99.90;;;;;;5042003;28;20216;-74
2023/03/14 02:21:27;;;;;;;13.23;11.93;;;8.30;99.90;;;;;;5043056;28;20832;-74
2023/03/14 02:24:04;;;;;;;11.13;10.23;;;8.30;99.90;;;;;;5042922;28;20250;-74
2023/03/14 02:26:37;;;;;;;10.95;9.95;;;8.40;99.90;;;;;;5045590;28;20783;-76
2023/03/14 02:29:06;;;;;;;13.13;11.93;;;8.50;99.90;;;;;;5046289;28;20237;-75
2023/03/14 02:31:33;;;;;;;11.23;10.25;;;8.50;99.90;;;;;;5058396;28;20275;-75
2023/03/14 02:34:01;;;;;;;12.43;11.32;;;8.50;99.90;;;;;;5045212;28;20600;-74
2023/03/14 02:36:29;;;;;;;13.57;12.35;;;8.60;99.90;;;;;;5044472;28;20230;-73
2023/03/14 02:39:04;;;;;;;11.40;10.35;;;8.60;99.90;;;;;;5043392;28;20256;-74
2023/03/14 02:41:31;;;;;;;12.20;11.10;;;8.60;99.90;;;;;;5041673;28;20844;-73
2023/03/14 02:43:58;;;;;;;12.07;10.98;;;8.60;99.90;;;;;;5044561;28;20231;-74
2023/03/14 02:46:27;;;;;;;12.80;11.77;;;8.60;99.90;;;;;;5042641;28;20252;-74
2023/03/14 02:48:57;;;;;;;11.23;10.23;;;8.60;99.90;;;;;;5043832;28;20249;-76
2023/03/14 02:51:26;;;;;;;12.30;11.23;;;8.50;99.90;;;;;;5041357;28;20215;-73
2023/03/14 02:53:54;;;;;;;11.20;10.25;;;8.50;99.90;;;;;;5045941;28;20290;-75
2023/03/14 02:56:21;;;;;;;9.27;8.48;;;8.40;99.90;;;;;;5044102;28;20250;-74
2023/03/14 02:58:47;;;;;;;12.13;11.02;;;8.40;99.90;;;;;;5044436;28;20218;-74
2023/03/14 03:01:14;;;;;;;10.55;9.65;;;8.50;99.90;;;;;;5038876;28;20245;-74
2023/03/14 03:03:43;;;;;;;10.02;9.13;;;8.60;99.90;;;;;;5039809;28;20292;-73
2023/03/14 03:06:10;;;;;;;10.85;9.90;;;8.60;99.90;;;;;;5043542;28;20230;-74
2023/03/14 03:08:37;;;;;;;10.35;9.48;;;8.60;99.90;;;;;;5041382;28;20274;-74
2023/03/14 03:11:04;;;;;;;9.32;8.43;;;8.60;99.90;;;;;;5042661;28;20199;-73
2023/03/14 03:13:31;;;;;;;8.15;7.45;;;8.60;99.90;;;;;;5041652;28;20259;-75
2023/03/14 03:15:58;;;;;;;8.27;7.47;;;8.70;99.90;;;;;;5036414;28;20762;-74
2023/03/14 03:18:25;;;;;;;7.70;7.10;;;8.80;99.90;;;;;;5040371;28;20227;-74
2023/03/14 03:20:53;;;;;;;12.45;11.35;;;8.90;99.90;;;;;;5040077;28;20230;-74
2023/03/14 03:23:20;;;;;;;10.40;9.50;;;8.90;99.90;;;;;;5043216;28;20278;-75
2023/03/14 03:25:50;;;;;;;11.88;10.77;;;8.90;99.90;;;;;;5040118;28;20283;-75
2023/03/14 03:28:18;;;;;;;11.98;10.95;;;8.80;99.90;;;;;;5048374;28;20206;-77
2023/03/14 03:30:45;;;;;;;10.95;9.85;;;8.70;99.90;;;;;;5052880;28;20203;-78
2023/03/14 03:33:13;;;;;;;10.38;9.38;;;8.60;99.90;;;;;;5045524;28;20241;-75
2023/03/14 03:35:45;;;;;;;9.35;8.63;;;8.60;99.90;;;;;;5045949;28;20202;-73
2023/03/14 03:38:14;;;;;;;8.63;7.93;;;8.60;99.90;;;;;;5045308;28;20245;-74
2023/03/14 03:40:41;;;;;;;9.38;8.57;;;8.60;99.90;;;;;;5048594;28;20263;-74
2023/03/14 03:43:08;;;;;;;9.45;8.55;;;8.70;99.90;;;;;;5043133;28;20881;-75
2023/03/14 03:45:35;;;;;;;8.15;7.55;;;8.70;99.90;;;;;;5042776;28;20693;-77
2023/03/14 03:48:02;;;;;;;10.52;9.60;;;8.80;99.90;;;;;;5047336;28;20314;-74
2023/03/14 03:50:29;;;;;;;12.40;11.20;;;8.80;99.90;;;;;;5045410;28;20206;-75
2023/03/14 03:52:56;;;;;;;11.40;10.43;;;8.80;99.90;;;;;;5045345;28;20230;-75
2023/03/14 03:55:25;;;;;;;14.43;12.88;;;8.70;99.90;;;;;;5042278;28;20207;-73
2023/03/14 03:57:53;;;;;;;11.68;10.60;;;8.70;99.90;;;;;;5048486;28;20250;-76
2023/03/14 04:00:20;;;;;;;13.55;12.15;;;8.60;99.90;;;;;;5056896;28;20262;-73
2023/03/14 04:02:47;;;;;;;11.65;10.68;;;8.60;99.90;;;;;;5054833;28;20246;-77
2023/03/14 04:05:13;;;;;;;36.72;10.63;;;8.60;99.90;;;;;;5051502;28;20755;-74
2023/03/14 04:07:40;;;;;;;10.05;9.10;;;8.60;99.90;;;;;;5047143;28;20214;-72
2023/03/14 04:10:08;;;;;;;13.32;12.20;;;8.60;99.90;;;;;;5045387;28;20281;-72
2023/03/14 04:12:37;;;;;;;10.43;9.52;;;8.60;99.90;;;;;;5040993;28;20270;-76
2023/03/14 04:15:04;;;;;;;9.95;9.05;;;8.60;99.90;;;;;;5042815;28;20203;-75
2023/03/14 04:17:31;;;;;;;9.88;9.07;;;8.60;99.90;;;;;;5048472;28;20298;-73
2023/03/14 04:19:58;;;;;;;9.60;8.75;;;8.60;99.90;;;;;;5045419;28;20457;-73
2023/03/14 04:22:25;;;;;;;8.68;7.97;;;8.60;99.90;;;;;;5045272;28;20219;-74
2023/03/14 04:24:51;;;;;;;8.23;7.53;;;8.70;99.90;;;;;;5048376;28;20286;-77
2023/03/14 04:27:18;;;;;;;7.95;7.28;;;8.70;99.90;;;;;;5054066;28;20230;-75
2023/03/14 04:29:47;;;;;;;8.07;7.38;;;8.80;99.90;;;;;;5053376;28;20225;-74
2023/03/14 04:32:14;;;;;;;7.82;7.22;;;8.80;99.90;;;;;;5044548;28;20257;-78
2023/03/14 04:34:41;;;;;;;8.23;7.63;;;8.80;99.90;;;;;;5040562;28;20277;-73
2023/03/14 04:37:08;;;;;;;7.63;7.03;;;8.80;99.90;;;;;;5045249;28;20215;-76
2023/03/14 04:39:35;;;;;;;7.45;6.75;;;8.80;99.90;;;;;;5042929;28;20211;-73
2023/03/14 04:42:02;;;;;;;7.85;6.45;;;8.80;99.90;;;;;;5041081;28;20921;-76
2023/03/14 04:44:29;;;;;;;8.15;7.45;;;8.90;99.90;;;;;;5045545;28;20234;-76
2023/03/14 04:46:57;;;;;;;7.68;6.97;;;8.90;99.90;;;;;;5042713;28;20222;-76
2023/03/14 04:49:24;;;;;;;8.43;7.80;;;8.90;99.90;;;;;;5045629;28;20295;-74
2023/03/14 04:51:52;;;;;;;7.13;6.57;;;8.90;99.90;;;;;;5044257;28;20256;-73
2023/03/14 04:54:19;;;;;;;7.32;6.72;;;8.90;99.90;;;;;;5044054;28;20191;-76
2023/03/14 04:56:46;;;;;;;6.85;6.35;;;8.90;99.90;;;;;;5041726;28;20222;-73
2023/03/14 04:59:13;;;;;;;8.15;7.55;;;8.80;99.90;;;;;;5048036;28;20191;-74
2023/03/14 05:01:40;;;;;;;7.53;6.93;;;8.80;99.90;;;;;;5043812;28;20202;-76
2023/03/14 05:04:09;;;;;;;7.72;7.13;;;8.80;99.90;;;;;;5047433;28;20655;-76
2023/03/14 05:06:36;;;;;;;7.68;7.07;;;8.80;99.90;;;;;;5044523;28;20253;-76
2023/03/14 05:09:04;;;;;;;8.00;7.40;;;8.80;99.90;;;;;;5045995;28;20211;-73
2023/03/14 05:11:32;;;;;;;8.60;7.90;;;8.80;99.90;;;;;;5044255;28;20199;-75
2023/03/14 05:13:59;;;;;;;6.80;6.30;;;8.80;99.90;;;;;;5041459;28;20195;-74
2023/03/14 05:16:26;;;;;;;7.43;6.82;;;8.80;99.90;;;;;;5042713;28;20219;-74
2023/03/14 05:18:53;;;;;;;10.48;6.55;;;8.80;99.90;;;;;;5042423;28;20830;-73
2023/03/14 05:21:21;;;;;;;6.20;5.80;;;8.80;99.90;;;;;;5043206;28;20199;-74
2023/03/14 05:23:48;;;;;;;6.05;5.65;;;8.70;99.90;;;;;;5046714;28;20307;-75
2023/03/14 05:26:16;;;;;;;6.55;5.78;;;8.70;99.90;;;;;;5056928;28;20187;-76
2023/03/14 05:28:43;;;;;;;4.95;4.57;;;8.70;99.90;;;;;;5051719;28;20226;-77
2023/03/14 05:31:11;;;;;;;4.90;4.60;;;8.70;99.90;;;;;;5042991;28;20199;-75
2023/03/14 05:33:38;;;;;;;4.28;3.97;;;8.70;99.90;;;;;;5040184;28;20785;-75
2023/03/14 05:36:06;;;;;;;4.70;4.40;;;8.70;99.90;;;;;;5047589;28;20928;-76
2023/03/14 05:38:34;;;;;;;4.47;4.18;;;8.70;99.90;;;;;;5046278;28;20253;-77
2023/03/14 05:41:01;;;;;;;4.35;4.05;;;8.80;99.90;;;;;;5048132;28;20260;-76
2023/03/14 05:43:28;;;;;;;4.15;3.85;;;8.80;99.90;;;;;;5047149;28;20643;-76
2023/03/14 05:45:55;;;;;;;5.35;4.95;;;8.90;99.90;;;;;;5049141;28;20230;-75
2023/03/14 05:48:22;;;;;;;4.55;4.25;;;8.90;99.90;;;;;;5044367;28;20288;-76
2023/03/14 05:50:49;;;;;;;5.00;4.47;;;8.90;99.90;;;;;;5045116;28;20201;-76
2023/03/14 05:53:16;;;;;;;5.22;4.88;;;8.90;99.90;;;;;;5048244;28;20613;-77
2023/03/14 05:55:44;;;;;;;6.35;5.85;;;8.90;99.90;;;;;;5045761;28;20231;-76
2023/03/14 05:58:11;;;;;;;256.25;16.90;;;8.90;99.90;;;;;;5045791;28;20218;-77
2023/03/14 06:00:38;;;;;;;938.50;39.45;;;8.80;99.90;;;;;;5042623;28;20228;-77
2023/03/14 06:03:05;;;;;;;86.03;14.10;;;8.60;99.90;;;;;;5044698;28;20222;-76
2023/03/14 06:05:32;;;;;;;60.75;11.07;;;8.40;99.90;;;;;;5048741;28;20290;-76
2023/03/14 06:07:59;;;;;;;232.05;21.20;;;8.50;99.90;;;;;;5048867;28;20223;-74
2023/03/14 06:10:26;;;;;;;601.60;28.83;;;8.40;99.90;;;;;;5044513;28;20202;-74
2023/03/14 06:12:54;;;;;;;8.65;7.95;;;8.30;99.90;;;;;;5040494;28;20658;-76
2023/03/14 06:15:21;;;;;;;10.55;8.07;;;8.20;99.90;;;;;;5040288;28;20265;-75
2023/03/14 06:17:48;;;;;;;35.38;8.23;;;8.20;99.90;;;;;;5042846;28;20948;-75
2023/03/14 06:20:15;;;;;;;223.00;17.67;;;8.20;99.90;;;;;;5048175;28;20206;-76
2023/03/14 06:22:43;;;;;;;31.98;8.70;;;8.10;99.90;;;;;;5044953;28;20202;-75
2023/03/14 06:25:10;;;;;;;7.35;6.78;;;8.20;99.90;;;;;;5051587;28;20214;-75
2023/03/14 06:27:37;;;;;;;12.73;7.85;;;8.20;99.90;;;;;;5050496;28;20249;-75
2023/03/14 06:30:07;;;;;;;6.47;5.97;;;8.30;99.90;;;;;;5041508;28;20673;-75
2023/03/14 06:32:34;;;;;;;5.20;4.80;;;8.30;99.90;;;;;;5045728;28;20199;-76
2023/03/14 06:35:00;;;;;;;5.32;4.93;;;8.40;99.90;;;;;;5044401;28;20226;-76
2023/03/14 06:37:28;;;;;;;5.75;5.35;;;8.40;99.90;;;;;;5041873;28;20659;-76
2023/03/14 06:39:55;;;;;;;8.60;6.07;;;8.50;99.90;;;;;;5042277;28;20294;-77
2023/03/14 06:42:22;;;;;;;5.90;5.45;;;8.50;99.90;;;;;;5046769;28;20207;-75
2023/03/14 06:44:49;;;;;;;18.90;5.97;;;8.60;99.90;;;;;;5048831;28;20246;-77
2023/03/14 06:47:18;;;;;;;7.20;6.70;;;8.50;99.90;;;;;;5052212;28;20276;-76
2023/03/14 06:49:44;;;;;;;6.70;6.20;;;8.50;99.90;;;;;;5050650;28;20226;-77
2023/03/14 06:52:11;;;;;;;10.70;7.55;;;8.50;99.90;;;;;;5053178;28;20239;-77
2023/03/14 06:54:38;;;;;;;7.13;6.03;;;8.60;99.90;;;;;;5042894;28;20727;-76
2023/03/14 06:57:05;;;;;;;5.25;4.85;;;8.60;99.90;;;;;;5040693;28;20310;-77
2023/03/14 06:59:32;;;;;;;5.70;5.30;;;8.70;99.90;;;;;;5042642;28;20696;-76
2023/03/14 07:01:59;;;;;;;5.47;5.07;;;8.70;99.90;;;;;;5040151;28;20228;-77
2023/03/14 07:04:27;;;;;;;5.05;4.70;;;8.80;99.90;;;;;;5041470;28;20378;-77
2023/03/14 07:06:55;;;;;;;4.60;4.30;;;8.80;99.90;;;;;;5034479;28;20202;-77
2023/03/14 07:09:21;;;;;;;4.28;3.97;;;8.90;99.90;;;;;;5039360;28;20199;-78
2023/03/14 07:11:48;;;;;;;5.30;4.90;;;9.00;99.90;;;;;;5034717;28;20303;-76
2023/03/14 07:14:15;;;;;;;4.97;4.57;;;9.00;99.90;;;;;;5035486;28;20300;-76
2023/03/14 07:16:42;;;;;;;7.03;5.00;;;9.00;99.90;;;;;;5034829;28;20330;-76
2023/03/14 07:19:11;;;;;;;10.10;7.00;;;9.00;99.90;;;;;;5037207;28;21610;-77
2023/03/14 07:21:39;;;;;;;71.55;9.75;;;9.00;99.90;;;;;;5048980;28;20234;-78
2023/03/14 07:24:06;;;;;;;8.57;7.88;;;9.10;99.90;;;;;;5051266;28;20215;-77
2023/03/14 07:26:33;;;;;;;8.10;7.40;;;9.10;99.90;;;;;;5047181;28;20258;-78
2023/03/14 07:29:02;;;;;;;8.55;7.85;;;9.10;99.90;;;;;;5039824;28;20425;-77
2023/03/14 07:31:30;;;;;;;18.05;9.25;;;9.10;99.90;;;;;;5039365;28;20570;-78
2023/03/14 07:33:57;;;;;;;11.20;10.10;;;9.10;99.90;;;;;;5040578;28;20284;-77
2023/03/14 07:36:24;;;;;;;8.77;7.97;;;9.00;99.90;;;;;;5039575;28;20411;-78
2023/03/14 07:38:52;;;;;;;9.57;8.77;;;9.00;99.90;;;;;;5037296;28;20270;-76
2023/03/14 07:41:20;;;;;;;8.18;7.57;;;9.10;99.90;;;;;;5037329;28;20191;-77
2023/03/14 07:43:47;;;;;;;8.93;8.23;;;9.20;99.90;;;;;;5037809;28;20238;-75
2023/03/14 07:46:14;;;;;;;30.60;10.45;;;9.20;99.90;;;;;;5035208;28;20285;-76
2023/03/14 07:48:41;;;;;;;9.18;8.38;;;9.20;99.90;;;;;;5034828;28;20203;-76
2023/03/14 07:51:08;;;;;;;14.75;13.45;;;9.10;99.90;;;;;;5034620;28;20202;-76
2023/03/14 07:53:35;;;;;;;19.05;10.73;;;9.10;99.90;;;;;;5035020;28;20301;-77
2023/03/14 07:56:04;;;;;;;20.10;11.52;;;9.10;99.90;;;;;;5030621;28;20306;-76
2023/03/14 07:58:31;;;;;;;117.28;16.55;;;9.10;99.90;;;;;;5037405;28;20199;-76
2023/03/14 08:01:00;;;;;;;63.35;12.57;;;9.10;99.90;;;;;;5040391;28;20298;-77
2023/03/14 08:03:26;;;;;;;56.22;15.10;;;9.00;99.90;;;;;;5035481;28;20302;-76
2023/03/14 08:05:54;;;;;;;11.93;10.85;;;9.00;99.90;;;;;;5038201;28;20195;-76
2023/03/14 08:08:21;;;;;;;18.98;11.00;;;9.00;99.90;;;;;;5038665;28;20285;-75
2023/03/14 08:10:48;;;;;;;15.63;14.18;;;8.90;99.90;;;;;;5034105;28;20242;-76
2023/03/14 08:13:16;;;;;;;35.83;14.18;;;8.90;99.90;;;;;;5036284;28;21298;-76
2023/03/14 08:15:43;;;;;;;12.68;11.57;;;8.80;99.90;;;;;;5034462;28;20293;-75
2023/03/14 08:18:10;;;;;;;10.90;9.93;;;8.90;99.90;;;;;;5038731;28;20214;-75
2023/03/14 08:20:38;;;;;;;9.95;9.07;;;8.90;99.90;;;;;;5056779;28;20430;-76
2023/03/14 08:23:05;;;;;;;12.15;11.05;;;9.00;99.90;;;;;;5043116;28;20285;-75
2023/03/14 08:25:32;;;;;;;9.57;8.77;;;9.00;99.90;;;;;;5043882;28;20310;-76
2023/03/14 08:27:59;;;;;;;11.70;10.60;;;9.00;99.90;;;;;;5039120;28;20398;-76
2023/03/14 08:30:27;;;;;;;11.48;10.40;;;9.10;99.90;;;;;;5038001;28;20358;-75
2023/03/14 08:32:54;;;;;;;11.48;10.38;;;9.20;99.90;;;;;;5042786;28;20230;-75
2023/03/14 08:35:21;;;;;;;10.35;9.35;;;9.20;99.90;;;;;;5044251;28;20207;-76
2023/03/14 08:37:48;;;;;;;9.50;8.68;;;9.30;99.90;;;;;;5041705;28;20219;-76
2023/03/14 08:40:17;;;;;;;9.00;8.20;;;9.40;99.90;;;;;;5042426;28;20203;-76
2023/03/14 08:42:44;;;;;;;8.60;7.80;;;9.40;99.90;;;;;;5043565;28;20207;-76
2023/03/14 08:45:13;;;;;;;7.30;6.60;;;9.50;99.90;;;;;;5040734;28;20301;-76
2023/03/14 08:47:41;;;;;;;9.13;8.32;;;9.50;99.90;;;;;;5042461;28;20908;-75
2023/03/14 08:50:09;;;;;;;8.02;7.32;;;9.60;99.90;;;;;;5041763;28;20234;-76
2023/03/14 08:52:37;;;;;;;6.28;5.78;;;9.60;99.90;;;;;;5043016;28;20295;-75
2023/03/14 08:55:05;;;;;;;5.95;5.38;;;9.60;99.90;;;;;;5037600;28;20762;-76
2023/03/14 08:57:32;;;;;;;5.47;5.07;;;9.60;99.90;;;;;;5039933;28;20223;-75
2023/03/14 08:59:59;;;;;;;4.95;4.63;;;9.70;99.90;;;;;;5042890;28;20306;-76
2023/03/14 09:02:27;;;;;;;4.63;4.22;;;9.80;99.90;;;;;;5042922;28;20227;-76
2023/03/14 09:04:56;;;;;;;5.38;4.97;;;9.90;99.90;;;;;;5037033;28;20211;-75
2023/03/14 09:07:23;;;;;;;5.40;5.00;;;10.00;99.90;;;;;;5036060;28;20310;-76
2023/03/14 09:09:50;;;;;;;4.93;4.47;;;10.00;99.90;;;;;;5041449;28;20285;-76
2023/03/14 09:12:17;;;;;;;4.45;4.15;;;10.00;99.90;;;;;;5037582;28;20290;-75
2023/03/14 09:14:44;;;;;;;6.25;5.65;;;10.00;99.90;;;;;;5032918;28;20280;-75
2023/03/14 09:17:11;;;;;;;4.22;3.92;;;10.20;99.90;;;;;;5043647;28;20257;-76
2023/03/14 09:19:38;;;;;;;5.88;5.30;;;10.20;99.90;;;;;;5055328;28;20206;-76
2023/03/14 09:22:06;;;;;;;7.18;6.35;;;10.20;99.90;;;;;;5041005;28;20552;-75
2023/03/14 09:24:33;;;;;;;6.30;5.80;;;10.10;99.90;;;;;;5035006;28;20305;-74
2023/03/14 09:27:00;;;;;;;21.83;7.55;;;10.10;99.90;;;;;;5041958;28;20308;-76
2023/03/14 09:29:27;;;;;;;9.63;8.82;;;10.10;99.90;;;;;;5040340;28;20585;-76
2023/03/14 09:31:54;;;;;;;17.08;10.88;;;10.10;99.90;;;;;;5036638;28;20661;-75
2023/03/14 09:34:21;;;;;;;12.82;11.25;;;10.10;99.90;;;;;;5039257;28;20249;-76
2023/03/14 09:36:48;;;;;;;15.23;13.73;;;9.90;99.90;;;;;;5038906;28;20499;-76
2023/03/14 09:39:16;;;;;;;14.13;12.82;;;9.80;99.90;;;;;;5035735;28;20631;-75
2023/03/14 09:41:47;;;;;;;13.48;12.18;;;9.60;99.90;;;;;;5038697;28;20201;-75
2023/03/14 09:44:17;;;;;;;15.23;13.63;;;9.60;99.90;;;;;;5039010;28;20273;-76
2023/03/14 09:46:48;;;;;;;16.98;15.38;;;9.50;99.90;;;;;;5040441;28;20305;-76
2023/03/14 09:49:20;;;;;;;14.73;13.32;;;9.50;99.90;;;;;;5039268;28;20206;-75
2023/03/14 09:51:50;;;;;;;12.98;11.77;;;9.50;99.90;;;;;;5043221;28;20441;-76
2023/03/14 09:54:32;;;;;;;13.00;11.82;;;9.60;99.90;;;;;;5033337;28;20280;-75
2023/03/14 09:56:59;;;;;;;12.32;11.23;;;9.70;99.90;;;;;;5038989;28;20640;-75
2023/03/14 09:59:28;;;;;;;11.35;10.32;;;9.80;99.90;;;;;;5037824;28;20280;-75
2023/03/14 10:01:57;;;;;;;10.52;9.57;;;9.90;99.90;;;;;;5038986;28;20546;-75
2023/03/14 10:04:24;;;;;;;9.80;8.90;;;9.90;99.90;;;;;;5038050;28;21179;-76
2023/03/14 10:06:51;;;;;;;9.93;9.00;;;10.00;99.90;;;;;;5037848;28;20254;-75
2023/03/14 10:09:25;;;;;;;11.15;10.13;;;10.10;99.90;;;;;;5035480;28;20226;-75
2023/03/14 10:11:57;;;;;;;10.85;9.85;;;10.10;99.90;;;;;;5036942;28;20290;-76
2023/03/14 10:14:32;;;;;;;12.02;10.98;;;10.20;99.90;;;;;;5037524;28;21666;-76
2023/03/14 10:17:07;;;;;;;9.77;8.95;;;10.30;99.90;;;;;;5052600;28;20273;-75
2023/03/14 10:19:35;;;;;;;8.88;8.18;;;10.50;99.90;;;;;;5037181;28;20206;-75
2023/03/14 10:22:04;;;;;;;9.27;8.40;;;10.70;99.90;;;;;;5039284;28;20239;-75
2023/03/14 10:24:33;;;;;;;9.35;8.45;;;10.80;99.90;;;;;;5033247;28;20221;-75
2023/03/14 10:27:04;;;;;;;8.18;7.47;;;11.00;99.90;;;;;;5033835;28;20704;-75
2023/03/14 10:29:32;;;;;;;8.50;7.70;;;11.10;99.90;;;;;;5033215;28;20233;-76
2023/03/14 10:32:01;;;;;;;8.80;8.00;;;11.20;99.90;;;;;;5034377;28;20761;-76
2023/03/14 10:34:30;;;;;;;8.32;7.53;;;11.20;99.90;;;;;;5035768;28;20197;-75
2023/03/14 10:37:00;;;;;;;9.10;8.30;;;11.20;99.90;;;;;;5034791;28;20442;-75
2023/03/14 10:39:31;;;;;;;10.68;9.68;;;11.20;99.90;;;;;;5034492;28;20199;-76
2023/03/14 10:42:07;;;;;;;10.52;9.63;;;11.20;99.90;;;;;;5036712;28;20195;-75
2023/03/14 10:44:36;;;;;;;11.13;10.20;;;11.10;99.90;;;;;;5027321;28;20238;-75
2023/03/14 10:47:05;;;;;;;9.45;8.65;;;11.00;99.90;;;;;;5029212;28;20698;-75
2023/03/14 10:49:35;;;;;;;12.43;9.82;;;11.00;99.90;;;;;;5032653;28;20385;-75
2023/03/14 10:52:14;;;;;;;9.32;8.35;;;11.10;99.90;;;;;;5032198;28;20297;-75
2023/03/14 10:54:41;;;;;;;9.27;8.57;;;11.20;99.90;;;;;;5031816;28;20208;-75
2023/03/14 10:57:12;;;;;;;8.95;8.18;;;11.20;99.90;;;;;;5036024;28;20243;-76
2023/03/14 10:59:42;;;;;;;8.45;7.72;;;11.20;99.90;;;;;;5033052;28;20288;-77
2023/03/14 11:02:28;;;;;;;8.70;7.97;;;11.20;99.90;;;;;;5031499;28;20744;-77
2023/03/14 11:05:04;;;;;;;7.85;7.15;;;11.40;99.90;;;;;;5036134;28;20329;-75
2023/03/14 11:07:36;;;;;;;8.25;7.55;;;11.40;99.90;;;;;;5034538;28;20524;-76
2023/03/14 11:10:11;;;;;;;9.35;8.45;;;11.50;99.90;;;;;;5037056;28;20281;-76
2023/03/14 11:12:50;;;;;;;7.30;6.70;;;12.00;99.90;;;;;;5030036;28;20556;-77
2023/03/14 11:15:23;;;;;;;9.55;8.57;;;12.20;99.90;;;;;;5049183;28;20226;-76
2023/03/14 11:18:00;;;;;;;7.80;7.07;;;12.40;99.90;;;;;;5038269;28;20226;-77
2023/03/14 11:20:36;;;;;;;8.80;7.93;;;12.50;99.90;;;;;;5035511;28;20290;-76
2023/03/14 11:23:13;;;;;;;8.77;7.97;;;12.80;99.90;;;;;;5033361;28;20225;-76
2023/03/14 11:25:49;;;;;;;7.80;7.10;;;12.80;99.90;;;;;;5032403;28;20233;-76
2023/03/14 11:28:23;;;;;;;9.80;8.75;;;12.70;99.90;;;;;;5031842;28;20304;-77
2023/03/14 11:30:54;;;;;;;9.82;8.77;;;12.50;99.90;;;;;;5029475;28;20291;-76
2023/03/14 11:33:26;;;;;;;9.10;8.23;;;12.40;99.90;;;;;;5034389;28;20274;-75
2023/03/14 11:35:59;;;;;;;8.85;8.05;;;12.40;99.90;;;;;;5034597;28;20222;-75
2023/03/14 11:38:33;;;;;;;8.45;7.75;;;12.50;99.90;;;;;;5034045;28;20222;-76
2023/03/14 11:41:01;;;;;;;8.50;7.80;;;12.30;99.90;;;;;;5031791;28;20293;-76
2023/03/14 11:43:34;;;;;;;8.10;7.40;;;12.30;99.90;;;;;;5036919;28;20896;-75
2023/03/14 11:46:08;;;;;;;8.48;7.68;;;12.10;99.90;;;;;;5034093;28;20815;-75
2023/03/14 11:48:41;;;;;;;8.88;8.18;;;12.10;99.90;;;;;;5030628;28;20249;-76
2023/03/14 11:51:13;;;;;;;8.25;7.55;;;12.10;99.90;;;;;;5036036;28;20206;-75
2023/03/14 11:53:48;;;;;;;8.15;7.35;;;12.20;99.90;;;;;;5034942;28;20295;-74
2023/03/14 11:56:20;;;;;;;7.60;6.90;;;12.00;99.90;;;;;;5036980;28;20220;-76
2023/03/14 11:58:55;;;;;;;7.63;6.93;;;11.80;99.90;;;;;;5035327;28;20845;-77
2023/03/14 12:01:29;;;;;;;7.53;6.85;;;11.80;99.90;;;;;;5038560;28;20288;-77
2023/03/14 12:04:02;;;;;;;7.20;6.50;;;11.80;99.90;;;;;;5044417;28;20568;-76
2023/03/14 12:06:34;;;;;;;6.55;6.05;;;11.80;99.90;;;;;;5042188;28;20834;-76
2023/03/14 12:09:03;;;;;;;6.70;6.10;;;11.90;99.90;;;;;;5037280;28;20287;-76
2023/03/14 12:11:36;;;;;;;6.47;5.97;;;11.90;99.90;;;;;;5046644;28;20210;-76
2023/03/14 12:14:20;;;;;;;5.93;5.45;;;12.00;99.90;;;;;;5044285;28;20256;-76
2023/03/14 12:16:48;;;;;;;5.97;5.47;;;12.20;99.90;;;;;;5037074;28;20297;-76
2023/03/14 12:19:28;;;;;;;5.85;5.35;;;12.40;99.90;;;;;;5039728;28;20579;-75
2023/03/14 12:21:59;;;;;;;5.60;5.20;;;12.60;99.90;;;;;;5039005;28;20687;-75
2023/03/14 12:24:29;;;;;;;5.43;5.03;;;13.00;99.90;;;;;;5032598;28;20231;-76
2023/03/14 12:26:58;;;;;;;6.00;5.43;;;13.30;99.90;;;;;;5037096;28;20242;-76
2023/03/14 12:29:27;;;;;;;5.55;5.05;;;13.20;99.90;;;;;;5038633;28;20651;-75
2023/03/14 12:32:23;;;;;;;5.53;5.13;;;13.20;99.90;;;;;;5037342;28;20695;-75
2023/03/14 12:34:50;;;;;;;6.20;5.70;;;13.30;99.90;;;;;;5039155;28;20195;-76
2023/03/14 12:37:36;;;;;;;5.53;5.13;;;13.70;99.90;;;;;;5036268;28;20992;-77
2023/03/14 12:40:19;;;;;;;6.63;6.13;;;14.30;99.90;;;;;;5038316;28;20290;-75
2023/03/14 12:42:57;;;;;;;6.97;6.43;;;15.10;99.90;;;;;;5038926;28;20460;-76
2023/03/14 12:45:28;;;;;;;6.20;5.60;;;15.50;99.90;;;;;;5037855;28;20509;-75
2023/03/14 12:48:02;;;;;;;6.07;5.50;;;15.90;99.90;;;;;;5037907;28;20243;-75
2023/03/14 12:50:35;;;;;;;5.45;5.00;;;16.20;99.90;;;;;;5038129;28;20218;-75
2023/03/14 12:53:29;;;;;;;5.57;5.07;;;16.40;99.90;;;;;;5037120;28;20505;-76